createdAt,value
2023-04-24T00:02:00.248Z,2.17
2023-04-24T00:04:30.645Z,2.03
2023-04-24T00:07:02.652Z,1.63
2023-04-24T00:09:32.859Z,1.70
2023-04-24T00:12:08.886Z,1.73
2023-04-24T00:14:39.145Z,1.90
2023-04-24T00:17:09.497Z,1.70
2023-04-24T00:19:40.917Z,1.65
2023-04-24T00:22:11.587Z,1.98
2023-04-24T00:24:41.932Z,1.63
2023-04-24T00:27:12.519Z,2.00
2023-04-24T00:29:43.054Z,2.28
2023-04-24T00:32:13.680Z,4.40
2023-04-24T00:34:44.825Z,1.63
2023-04-24T00:37:15.119Z,1.60
2023-04-24T00:39:45.747Z,1.92
2023-04-24T00:42:16.195Z,2.92
2023-04-24T00:44:46.565Z,3.67
2023-04-24T00:47:17.447Z,1.98
2023-04-24T00:49:47.826Z,3.67
2023-04-24T00:52:20.652Z,1.60
2023-04-24T00:54:51.135Z,3.70
2023-04-24T00:57:21.594Z,2.03
2023-04-24T00:59:52.449Z,1.30
2023-04-24T01:02:23.244Z,2.00
2023-04-24T01:04:54.633Z,4.05
2023-04-24T01:07:25.445Z,1.65
2023-04-24T01:09:56.045Z,2.17
2023-04-24T01:12:26.396Z,3.15
2023-04-24T01:14:57.883Z,1.65
2023-04-24T01:17:28.180Z,2.20
2023-04-24T01:20:02.578Z,3.53
2023-04-24T01:22:32.863Z,3.65
2023-04-24T01:25:03.276Z,1.92
2023-04-24T01:27:33.908Z,3.65
2023-04-24T01:30:04.273Z,1.90
2023-04-24T01:32:35.604Z,2.58
2023-04-24T01:35:06.484Z,1.88
2023-04-24T01:37:37.613Z,3.42
2023-04-24T01:40:11.511Z,5.20
2023-04-24T01:42:44.071Z,4.32
2023-04-24T01:45:18.023Z,4.60
2023-04-24T01:47:50.237Z,2.60
2023-04-24T01:50:21.148Z,3.00
2023-04-24T01:52:52.230Z,3.90
2023-04-24T01:55:22.622Z,4.30
2023-04-24T01:57:55.613Z,2.20
2023-04-24T02:00:27.460Z,5.57
2023-04-24T02:02:58.918Z,4.30
2023-04-24T02:05:29.277Z,4.60
2023-04-24T02:07:59.478Z,4.75
2023-04-24T02:10:29.759Z,6.53
2023-04-24T02:12:59.947Z,3.25
2023-04-24T02:15:30.154Z,4.13
2023-04-24T02:18:00.505Z,3.28
2023-04-24T02:20:30.858Z,3.20
2023-04-24T02:23:01.116Z,2.92
2023-04-24T02:25:31.342Z,5.82
2023-04-24T02:28:01.516Z,2.45
2023-04-24T02:30:32.030Z,2.75
2023-04-24T02:33:02.481Z,7.15
2023-04-24T02:35:32.809Z,5.10
2023-04-24T02:38:03.141Z,3.38
2023-04-24T02:40:33.513Z,2.53
2023-04-24T02:43:04.006Z,2.30
2023-04-24T02:45:37.029Z,3.38
2023-04-24T02:48:07.266Z,2.80
2023-04-24T02:50:37.711Z,2.22
2023-04-24T02:53:08.064Z,3.70
2023-04-24T02:55:38.786Z,3.80
2023-04-24T02:58:09.113Z,2.63
2023-04-24T03:00:39.518Z,2.33
2023-04-24T03:03:10.012Z,3.72
2023-04-24T03:05:40.414Z,2.50
2023-04-24T03:08:10.628Z,2.75
2023-04-24T03:10:40.894Z,2.47
2023-04-24T03:13:11.119Z,2.88
2023-04-24T03:15:41.351Z,3.30
2023-04-24T03:18:11.708Z,2.80
2023-04-24T03:20:42.545Z,3.53
2023-04-24T03:23:12.747Z,5.07
2023-04-24T03:25:45.713Z,3.47
2023-04-24T03:28:15.921Z,1.85
2023-04-24T03:30:46.256Z,4.47
2023-04-24T03:33:16.597Z,3.35
2023-04-24T03:35:47.693Z,2.92
2023-04-24T03:38:17.942Z,1.65
2023-04-24T03:40:48.518Z,2.00
2023-04-24T03:43:18.737Z,2.33
2023-04-24T03:45:49.071Z,3.15
2023-04-24T03:48:19.364Z,2.83
2023-04-24T03:50:49.708Z,3.42
2023-04-24T03:53:20.241Z,2.83
2023-04-24T03:55:50.724Z,5.38
2023-04-24T03:58:20.903Z,5.05
2023-04-24T04:00:52.198Z,2.20
2023-04-24T04:03:22.539Z,5.35
2023-04-24T04:05:53.016Z,2.50
2023-04-24T04:08:23.553Z,7.10
2023-04-24T04:10:54.302Z,2.92
2023-04-24T04:13:24.530Z,3.85
2023-04-24T04:15:54.853Z,3.33
2023-04-24T04:18:25.020Z,3.90
2023-04-24T04:20:55.243Z,2.90
2023-04-24T04:23:25.592Z,2.28
2023-04-24T04:25:55.867Z,4.15
2023-04-24T04:28:27.396Z,3.70
2023-04-24T04:30:58.145Z,3.17
2023-04-24T04:33:28.691Z,3.50
2023-04-24T04:36:02.214Z,2.70
2023-04-24T04:38:33.819Z,4.20
2023-04-24T04:41:04.916Z,10.10
2023-04-24T04:43:35.366Z,4.10
2023-04-24T04:46:06.122Z,3.17
2023-04-24T04:48:36.526Z,5.68
2023-04-24T04:51:06.942Z,5.28
2023-04-24T04:53:37.657Z,5.57
2023-04-24T04:56:08.033Z,6.13
2023-04-24T04:58:38.323Z,3.85
2023-04-24T05:01:09.512Z,3.50
2023-04-24T05:03:40.143Z,2.30
2023-04-24T05:06:10.728Z,2.33
2023-04-24T05:08:40.940Z,4.13
2023-04-24T05:11:11.391Z,3.58
2023-04-24T05:13:41.883Z,3.63
2023-04-24T05:16:12.564Z,5.07
2023-04-24T05:18:43.205Z,6.47
2023-04-24T05:21:13.366Z,4.40
2023-04-24T05:23:43.552Z,4.07
2023-04-24T05:26:13.706Z,5.63
2023-04-24T05:28:44.010Z,7.68
2023-04-24T05:31:15.116Z,9.73
2023-04-24T05:33:45.412Z,8.18
2023-04-24T05:36:15.918Z,2.65
2023-04-24T05:38:46.096Z,8.20
2023-04-24T05:41:16.273Z,3.65
2023-04-24T05:43:46.626Z,1.88
2023-04-24T05:46:16.864Z,4.35
2023-04-24T05:48:47.084Z,4.82
2023-04-24T05:51:17.306Z,3.88
2023-04-24T05:53:47.946Z,5.38
2023-04-24T05:56:18.693Z,4.50
2023-04-24T05:58:49.735Z,4.47
2023-04-24T06:01:20.861Z,2.67
2023-04-24T06:03:51.905Z,2.47
2023-04-24T06:06:22.261Z,1.95
2023-04-24T06:08:52.470Z,3.33
2023-04-24T06:11:22.717Z,5.47
2023-04-24T06:13:53.037Z,3.08
2023-04-24T06:16:23.316Z,2.92
2023-04-24T06:18:53.584Z,4.45
2023-04-24T06:21:23.770Z,4.85
2023-04-24T06:23:54.025Z,3.53
2023-04-24T06:26:24.786Z,5.45
2023-04-24T06:28:58.400Z,1.90
2023-04-24T06:31:29.236Z,3.22
2023-04-24T06:33:59.427Z,3.13
2023-04-24T06:36:30.707Z,5.25
2023-04-24T06:39:01.092Z,2.17
2023-04-24T06:41:32.474Z,4.38
2023-04-24T06:44:03.092Z,3.72
2023-04-24T06:46:36.494Z,3.13
2023-04-24T06:49:06.756Z,3.00
2023-04-24T06:51:37.272Z,3.05
2023-04-24T06:54:07.455Z,4.43
2023-04-24T06:56:37.755Z,16.25
2023-04-24T06:59:07.956Z,9.48
2023-04-24T07:01:38.296Z,10.80
2023-04-24T07:04:08.755Z,7.80
2023-04-24T07:06:40.205Z,3.08
2023-04-24T07:09:11.974Z,4.47
2023-04-24T07:11:43.345Z,6.57
2023-04-24T07:14:13.645Z,4.22
2023-04-24T07:16:43.945Z,3.65
2023-04-24T07:19:14.184Z,5.10
2023-04-24T07:21:45.522Z,3.90
2023-04-24T07:24:15.787Z,4.88
2023-04-24T07:26:46.550Z,3.88
2023-04-24T07:29:17.616Z,3.75
2023-04-24T07:31:48.510Z,5.05
2023-04-24T07:34:18.877Z,1.70
2023-04-24T07:36:50.092Z,7.97
2023-04-24T07:39:20.677Z,2.55
2023-04-24T07:41:50.949Z,2.42
2023-04-24T07:44:21.134Z,3.15
2023-04-24T07:46:51.678Z,4.90
2023-04-24T07:49:22.015Z,3.63
2023-04-24T07:51:53.564Z,3.80
2023-04-24T07:54:25.370Z,4.10
2023-04-24T07:56:55.860Z,3.85
2023-04-24T07:59:26.175Z,3.53
2023-04-24T08:01:57.000Z,2.97
2023-04-24T08:04:27.417Z,3.13
2023-04-24T08:06:58.522Z,2.05
2023-04-24T08:09:28.700Z,2.45
2023-04-24T08:12:00.268Z,4.20
2023-04-24T08:14:30.508Z,2.92
2023-04-24T08:17:02.850Z,3.80
2023-04-24T08:19:33.217Z,2.83
2023-04-24T08:22:03.738Z,2.10
2023-04-24T08:24:33.863Z,2.97
2023-04-24T08:27:05.013Z,1.42
2023-04-24T08:29:35.437Z,1.83
2023-04-24T08:32:06.036Z,3.63
2023-04-24T08:34:36.344Z,3.63
2023-04-24T08:37:07.424Z,3.88
2023-04-24T08:39:37.693Z,3.22
2023-04-24T08:42:10.883Z,2.58
2023-04-24T08:44:41.169Z,1.40
2023-04-24T08:47:12.621Z,2.17
2023-04-24T08:49:44.821Z,2.22
2023-04-24T08:52:16.646Z,2.35
2023-04-24T08:54:48.641Z,2.15
2023-04-24T08:57:19.840Z,2.65
2023-04-24T08:59:51.042Z,2.63
2023-04-24T09:02:22.067Z,1.92
2023-04-24T09:04:52.928Z,3.03
2023-04-24T09:07:25.382Z,2.85
2023-04-24T09:09:56.297Z,1.80
2023-04-24T09:12:26.683Z,2.42
2023-04-24T09:14:58.044Z,2.80
2023-04-24T09:17:29.846Z,2.20
2023-04-24T09:20:00.007Z,2.10
2023-04-24T09:22:36.345Z,2.03
2023-04-24T09:25:09.410Z,2.95
2023-04-24T09:27:40.019Z,4.38
2023-04-24T09:30:11.213Z,1.73
2023-04-24T09:32:41.736Z,2.80
2023-04-24T09:35:17.262Z,2.13
2023-04-24T09:37:51.596Z,1.98
2023-04-24T09:40:23.741Z,1.42
2023-04-24T09:43:03.762Z,3.13
2023-04-24T09:45:42.170Z,2.05
2023-04-24T09:48:15.440Z,2.30
2023-04-24T09:50:50.019Z,1.85
2023-04-24T09:53:27.007Z,2.15
2023-04-24T09:55:57.481Z,3.03
2023-04-24T09:58:31.897Z,1.88
2023-04-24T10:01:02.259Z,2.00
2023-04-24T10:03:37.173Z,1.92
2023-04-24T10:06:11.591Z,3.38
2023-04-24T10:08:41.872Z,2.28
2023-04-24T10:11:14.083Z,1.25
2023-04-24T10:13:45.429Z,2.65
2023-04-24T10:16:16.259Z,2.08
2023-04-24T10:18:47.192Z,1.90
2023-04-24T10:21:20.476Z,1.60
2023-04-24T10:23:51.627Z,1.88
2023-04-24T10:26:22.500Z,1.48
2023-04-24T10:28:53.617Z,2.13
2023-04-24T10:31:24.982Z,1.80
2023-04-24T10:33:56.541Z,2.03
2023-04-24T10:36:29.470Z,1.65
2023-04-24T10:39:02.449Z,2.47
2023-04-24T10:41:34.279Z,1.42
2023-04-24T10:44:17.433Z,2.08
2023-04-24T10:46:52.739Z,2.55
2023-04-24T10:49:32.978Z,2.45
2023-04-24T10:52:10.179Z,1.27
2023-04-24T10:54:47.317Z,1.00
2023-04-24T10:57:24.675Z,1.17
2023-04-24T11:00:15.150Z,1.50
2023-04-24T11:02:52.030Z,1.55
2023-04-24T11:05:24.214Z,1.73
2023-04-24T11:08:27.396Z,1.20
2023-04-24T11:11:02.527Z,1.02
2023-04-24T11:13:58.581Z,2.03
2023-04-24T11:16:38.089Z,3.80
2023-04-24T11:19:17.889Z,2.58
2023-04-24T11:22:05.026Z,2.60
2023-04-24T11:24:40.762Z,1.30
2023-04-24T11:27:27.053Z,1.60
2023-04-24T11:30:00.503Z,1.98
2023-04-24T11:32:45.407Z,2.03
2023-04-24T11:35:20.760Z,1.23
2023-04-24T11:40:28.765Z,1.88
2023-04-24T11:42:59.135Z,2.03
2023-04-24T11:45:32.262Z,2.47
2023-04-24T11:48:02.831Z,1.70
2023-04-24T11:50:33.280Z,5.25
2023-04-24T11:53:03.892Z,1.98
2023-04-24T11:55:34.905Z,1.52
2023-04-24T11:58:05.270Z,1.33
2023-04-24T12:00:37.014Z,2.10
2023-04-24T12:03:12.287Z,3.38
2023-04-24T12:05:43.429Z,1.13
2023-04-24T12:08:14.149Z,2.63
2023-04-24T12:10:44.380Z,2.03
2023-04-24T12:13:15.071Z,2.15
2023-04-24T12:15:45.286Z,3.10
2023-04-24T12:18:19.788Z,1.90
2023-04-24T12:20:50.077Z,2.05
2023-04-24T12:23:36.265Z,0.98
2023-04-24T12:26:09.450Z,1.52
2023-04-24T12:28:41.405Z,1.95
2023-04-24T12:31:11.805Z,4.05
2023-04-24T12:33:42.099Z,1.45
2023-04-24T12:36:15.042Z,2.35
2023-04-24T12:38:49.341Z,4.00
2023-04-24T12:41:22.229Z,4.35
2023-04-24T12:43:58.793Z,1.42
2023-04-24T12:46:28.956Z,2.72
2023-04-24T12:49:01.161Z,1.58
2023-04-24T12:51:31.506Z,3.22
2023-04-24T12:54:01.728Z,2.38
2023-04-24T12:56:32.417Z,1.77
2023-04-24T12:59:02.737Z,2.28
2023-04-24T13:01:32.997Z,1.23
2023-04-24T13:04:03.579Z,2.65
2023-04-24T13:06:34.229Z,3.53
2023-04-24T13:09:04.599Z,3.67
2023-04-24T13:11:35.390Z,2.65
2023-04-24T13:14:05.953Z,1.33
2023-04-24T13:16:36.390Z,1.50
2023-04-24T13:19:06.785Z,2.60
2023-04-24T13:21:37.138Z,4.05
2023-04-24T13:24:08.428Z,1.92
2023-04-24T13:26:38.726Z,2.53
2023-04-24T13:29:08.959Z,2.33
2023-04-24T13:31:39.431Z,1.48
2023-04-24T13:34:09.992Z,2.40
2023-04-24T13:36:40.395Z,2.33
2023-04-24T13:39:10.704Z,2.55
2023-04-24T13:41:41.021Z,1.25
2023-04-24T13:44:11.352Z,2.08
2023-04-24T13:46:41.606Z,1.38
2023-04-24T13:49:12.170Z,0.98
2023-04-24T13:51:43.552Z,3.58
2023-04-24T13:54:14.473Z,2.40
2023-04-24T13:56:44.931Z,1.30
2023-04-24T13:59:16.779Z,1.77
2023-04-24T14:01:47.835Z,2.70
2023-04-24T14:04:18.444Z,1.75
2023-04-24T14:06:48.922Z,1.50
2023-04-24T14:09:19.162Z,1.58
2023-04-24T14:11:49.395Z,1.70
2023-04-24T14:14:19.561Z,2.17
2023-04-24T14:16:49.783Z,1.73
2023-04-24T14:19:20.142Z,0.93
2023-04-24T14:21:50.372Z,1.27
2023-04-24T14:24:20.629Z,1.55
2023-04-24T14:26:50.820Z,2.17
2023-04-24T14:29:22.203Z,2.67
2023-04-24T14:31:52.581Z,1.73
2023-04-24T14:34:22.942Z,1.65
2023-04-24T14:36:53.110Z,1.10
2023-04-24T14:39:23.451Z,1.27
2023-04-24T14:41:53.618Z,2.88
2023-04-24T14:44:24.369Z,1.08
2023-04-24T14:46:54.756Z,0.95
2023-04-24T14:49:24.925Z,1.17
2023-04-24T14:51:55.140Z,1.63
2023-04-24T14:54:25.978Z,1.40
2023-04-24T14:56:57.818Z,3.50
2023-04-24T14:59:28.220Z,2.20
2023-04-24T15:02:15.030Z,1.17
2023-04-24T15:04:46.666Z,2.47
2023-04-24T15:07:17.259Z,1.00
2023-04-24T15:09:49.724Z,1.75
2023-04-24T15:12:20.212Z,2.25
2023-04-24T15:14:50.567Z,2.30
2023-04-24T15:17:20.762Z,1.20
2023-04-24T15:19:50.969Z,0.95
2023-04-24T15:22:21.417Z,1.30
2023-04-24T15:24:51.694Z,4.90
2023-04-24T15:27:21.914Z,1.20
2023-04-24T15:29:52.361Z,4.57
2023-04-24T15:32:22.913Z,1.13
2023-04-24T15:35:04.945Z,1.42
2023-04-24T15:37:38.708Z,0.80
2023-04-24T15:40:09.885Z,1.48
2023-04-24T15:42:40.255Z,1.27
2023-04-24T15:45:11.264Z,2.38
2023-04-24T15:47:42.475Z,1.90
2023-04-24T15:50:14.840Z,1.10
2023-04-24T15:52:49.142Z,2.40
2023-04-24T15:55:19.414Z,1.33
2023-04-24T15:57:49.731Z,1.98
2023-04-24T16:00:20.520Z,1.33
2023-04-24T16:02:52.099Z,2.17
2023-04-24T16:05:24.450Z,1.30
2023-04-24T16:07:54.629Z,1.35
2023-04-24T16:10:24.886Z,1.10
2023-04-24T16:12:56.196Z,1.48
2023-04-24T16:15:26.623Z,1.27
2023-04-24T16:17:56.888Z,1.88
2023-04-24T16:20:27.351Z,1.42
2023-04-24T16:22:57.743Z,2.42
2023-04-24T16:25:28.012Z,1.70
2023-04-24T16:27:58.617Z,1.42
2023-04-24T16:30:28.869Z,1.77
2023-04-24T16:32:59.779Z,1.73
2023-04-24T16:35:30.113Z,1.75
2023-04-24T16:38:00.517Z,1.48
2023-04-24T16:40:30.835Z,1.55
2023-04-24T16:43:01.121Z,1.08
2023-04-24T16:45:31.352Z,0.95
2023-04-24T16:48:01.636Z,1.25
2023-04-24T16:50:32.128Z,1.50
2023-04-24T16:53:02.372Z,0.93
2023-04-24T16:55:32.699Z,1.40
2023-04-24T16:58:03.359Z,1.30
2023-04-24T17:00:33.598Z,1.60
2023-04-24T17:03:04.056Z,1.88
2023-04-24T17:05:34.983Z,1.75
2023-04-24T17:08:05.700Z,1.27
2023-04-24T17:10:36.122Z,2.15
2023-04-24T17:13:06.421Z,1.48
2023-04-24T17:15:37.682Z,1.02
2023-04-24T17:18:09.011Z,1.40
2023-04-24T17:20:39.409Z,1.55
2023-04-24T17:23:13.529Z,0.95
2023-04-24T17:25:43.810Z,1.25
2023-04-24T17:28:34.620Z,1.15
2023-04-24T17:31:04.934Z,1.30
2023-04-24T17:33:35.201Z,1.38
2023-04-24T17:36:05.565Z,1.20
2023-04-24T17:38:36.331Z,2.25
2023-04-24T17:41:06.818Z,1.40
2023-04-24T17:43:37.331Z,1.45
2023-04-24T17:46:09.253Z,1.08
2023-04-24T17:48:39.874Z,2.03
2023-04-24T17:51:10.264Z,1.42
2023-04-24T17:53:41.212Z,1.80
2023-04-24T17:56:11.837Z,1.30
2023-04-24T17:58:42.845Z,1.70
2023-04-24T18:01:13.269Z,2.10
2023-04-24T18:03:45.307Z,1.40
2023-04-24T18:06:18.884Z,1.23
2023-04-24T18:08:49.454Z,1.23
2023-04-24T18:11:19.835Z,1.02
2023-04-24T18:13:51.283Z,2.00
2023-04-24T18:16:22.253Z,1.30
2023-04-24T18:18:54.165Z,1.75
2023-04-24T18:21:25.439Z,1.15
2023-04-24T18:23:56.829Z,2.83
2023-04-24T18:26:27.172Z,2.28
2023-04-24T18:28:57.833Z,1.33
2023-04-24T18:31:28.123Z,1.40
2023-04-24T18:33:58.335Z,1.30
2023-04-24T18:36:28.604Z,2.80
2023-04-24T18:38:58.827Z,1.30
2023-04-24T18:41:29.410Z,2.30
2023-04-24T18:44:01.033Z,1.90
2023-04-24T18:46:32.892Z,1.52
2023-04-24T18:49:03.357Z,1.10
2023-04-24T18:51:40.383Z,1.27
2023-04-24T18:54:17.095Z,1.27
2023-04-24T18:56:47.391Z,1.17
2023-04-24T18:59:17.620Z,1.35
2023-04-24T19:01:47.932Z,1.60
2023-04-24T19:04:18.266Z,1.52
2023-04-24T19:06:48.747Z,1.23
2023-04-24T19:09:19.271Z,1.92
2023-04-24T19:11:49.628Z,1.42
2023-04-24T19:14:21.073Z,1.70
2023-04-24T19:16:51.729Z,0.80
2023-04-24T19:19:22.074Z,1.00
2023-04-24T19:21:52.380Z,1.10
2023-04-24T19:24:23.034Z,1.38
2023-04-24T19:26:53.224Z,1.17
2023-04-24T19:29:23.605Z,1.73
2023-04-24T19:31:56.032Z,1.45
2023-04-24T19:34:26.585Z,1.33
2023-04-24T19:36:56.843Z,1.20
2023-04-24T19:39:27.188Z,0.98
2023-04-24T19:41:58.765Z,1.30
2023-04-24T19:44:29.085Z,1.90
2023-04-24T19:46:59.293Z,0.80
2023-04-24T19:49:29.591Z,1.35
2023-04-24T19:51:59.906Z,1.00
2023-04-24T19:54:30.463Z,1.20
2023-04-24T19:57:01.357Z,1.45
2023-04-24T19:59:32.899Z,1.02
2023-04-24T20:02:04.186Z,2.53
2023-04-24T20:04:34.563Z,1.17
2023-04-24T20:07:05.097Z,1.08
2023-04-24T20:09:35.319Z,1.30
2023-04-24T20:12:05.674Z,1.00
2023-04-24T20:14:35.855Z,1.77
2023-04-24T20:17:06.114Z,0.90
2023-04-24T20:19:36.392Z,2.55
2023-04-24T20:22:06.641Z,1.50
2023-04-24T20:24:37.086Z,1.05
2023-04-24T20:27:07.242Z,1.65
2023-04-24T20:29:37.470Z,0.93
2023-04-24T20:32:08.587Z,1.48
2023-04-24T20:34:39.335Z,2.55
2023-04-24T20:37:09.618Z,2.30
2023-04-24T20:39:40.481Z,1.38
2023-04-24T20:42:12.594Z,1.10
2023-04-24T20:44:43.230Z,0.90
2023-04-24T20:47:14.548Z,1.42
2023-04-24T20:49:44.721Z,1.33
2023-04-24T20:52:14.966Z,1.00
2023-04-24T20:54:45.379Z,1.13
2023-04-24T20:57:15.646Z,0.85
2023-04-24T20:59:45.867Z,1.00
2023-04-24T21:02:16.353Z,1.52
2023-04-24T21:04:47.593Z,1.05
2023-04-24T21:07:17.803Z,0.82
2023-04-24T21:09:48.153Z,3.42
2023-04-24T21:12:18.455Z,2.15
2023-04-24T21:14:50.935Z,2.13
2023-04-24T21:17:21.702Z,1.27
2023-04-24T21:19:52.048Z,0.95
2023-04-24T21:22:23.423Z,1.23
2023-04-24T21:24:53.825Z,0.85
2023-04-24T21:27:24.318Z,1.17
2023-04-24T21:29:54.739Z,1.30
2023-04-24T21:32:25.320Z,0.82
2023-04-24T21:34:55.801Z,0.70
2023-04-24T21:37:26.101Z,2.65
2023-04-24T21:39:56.786Z,0.70
2023-04-24T21:42:27.285Z,1.60
2023-04-24T21:44:57.597Z,2.65
2023-04-24T21:47:27.919Z,1.10
2023-04-24T21:49:58.154Z,1.67
2023-04-24T21:52:29.626Z,0.80
2023-04-24T21:54:59.859Z,1.33
2023-04-24T21:57:31.152Z,0.77
2023-04-24T22:00:01.482Z,1.08
2023-04-24T22:02:31.776Z,1.23
2023-04-24T22:05:04.857Z,6.90
2023-04-24T22:07:38.100Z,10.85
2023-04-24T22:10:09.083Z,14.70
2023-04-24T22:12:39.451Z,16.83
2023-04-24T22:15:14.047Z,13.50
2023-04-24T22:17:45.148Z,12.00
2023-04-24T22:20:15.687Z,8.48
2023-04-24T22:22:45.976Z,19.00
2023-04-24T22:25:16.770Z,3.22
2023-04-24T22:27:47.232Z,7.75
2023-04-24T22:30:17.617Z,9.57
2023-04-24T22:32:48.080Z,4.95
2023-04-24T22:35:18.636Z,7.97
2023-04-24T22:37:52.183Z,3.67
2023-04-24T22:40:22.637Z,5.85
2023-04-24T22:42:53.458Z,4.95
2023-04-24T22:45:27.919Z,4.15
2023-04-24T22:47:58.407Z,4.07
2023-04-24T22:50:28.788Z,4.50
2023-04-24T22:52:59.328Z,9.02
2023-04-24T22:55:29.709Z,11.13
2023-04-24T22:58:00.499Z,4.18
2023-04-24T23:00:31.189Z,6.10
2023-04-24T23:03:01.537Z,3.45
2023-04-24T23:05:32.731Z,6.00
2023-04-24T23:08:02.995Z,6.25
2023-04-24T23:10:33.367Z,1.40
2023-04-24T23:13:03.530Z,2.78
2023-04-24T23:15:34.430Z,2.75
2023-04-24T23:18:04.790Z,3.50
2023-04-24T23:20:35.077Z,1.27
2023-04-24T23:23:05.418Z,2.30
2023-04-24T23:25:36.369Z,2.15
2023-04-24T23:28:09.214Z,4.57
2023-04-24T23:30:39.397Z,2.63
2023-04-24T23:33:09.677Z,3.92
2023-04-24T23:35:39.911Z,2.00
2023-04-24T23:38:10.478Z,2.67
2023-04-24T23:40:40.722Z,1.75
2023-04-24T23:43:11.028Z,2.67
2023-04-24T23:45:42.278Z,1.88
2023-04-24T23:48:12.595Z,1.95
2023-04-24T23:50:42.962Z,4.80
2023-04-24T23:53:13.957Z,4.05
2023-04-24T23:55:44.250Z,3.42
2023-04-24T23:58:15.092Z,4.18
